sensor_id;sensor_type;location;lat;lon;timestamp;P1;durP1;ratioP1;P2;durP2;ratioP2
30080;SDS011;16902;50.816;12.828;2023-11-21T00:00:59;5.30;;;5.10;;
30080;SDS011;16902;50.816;12.828;2023-11-21T00:06:02;5.57;;;5.38;;
30080;SDS011;16902;50.816;12.828;2023-11-21T00:11:04;5.90;;;5.70;;
30080;SDS011;16902;50.816;12.828;2023-11-21T00:16:07;5.60;;;5.40;;
30080;SDS011;16902;50.816;12.828;2023-11-21T00:21:09;6.22;;;5.93;;
30080;SDS011;16902;50.816;12.828;2023-11-21T00:26:10;5.50;;;5.30;;
30080;SDS011;16902;50.816;12.828;2023-11-21T00:31:13;5.38;;;5.18;;
30080;SDS011;16902;50.816;12.828;2023-11-21T00:36:15;5.82;;;5.63;;
30080;SDS011;16902;50.816;12.828;2023-11-21T00:41:16;6.57;;;6.38;;
30080;SDS011;16902;50.816;12.828;2023-11-21T00:46:18;6.13;;;5.93;;
30080;SDS011;16902;50.816;12.828;2023-11-21T00:51:20;5.88;;;5.47;;
30080;SDS011;16902;50.816;12.828;2023-11-21T00:56:22;6.15;;;5.95;;
30080;SDS011;16902;50.816;12.828;2023-11-21T01:01:24;5.43;;;5.22;;
30080;SDS011;16902;50.816;12.828;2023-11-21T01:06:26;5.97;;;5.78;;
30080;SDS011;16902;50.816;12.828;2023-11-21T01:11:28;6.35;;;6.05;;
30080;SDS011;16902;50.816;12.828;2023-11-21T01:16:30;6.07;;;5.88;;
30080;SDS011;16902;50.816;12.828;2023-11-21T01:21:34;6.15;;;5.95;;
30080;SDS011;16902;50.816;12.828;2023-11-21T01:26:36;6.43;;;6.18;;
30080;SDS011;16902;50.816;12.828;2023-11-21T01:31:38;6.22;;;6.03;;
30080;SDS011;16902;50.816;12.828;2023-11-21T01:36:40;6.00;;;5.78;;
30080;SDS011;16902;50.816;12.828;2023-11-21T01:41:42;6.65;;;6.35;;
30080;SDS011;16902;50.816;12.828;2023-11-21T01:46:45;6.20;;;6.00;;
30080;SDS011;16902;50.816;12.828;2023-11-21T01:51:50;6.20;;;6.00;;
30080;SDS011;16902;50.816;12.828;2023-11-21T01:56:53;5.88;;;5.68;;
30080;SDS011;16902;50.816;12.828;2023-11-21T02:01:55;5.80;;;5.60;;
30080;SDS011;16902;50.816;12.828;2023-11-21T02:06:58;5.85;;;5.65;;
30080;SDS011;16902;50.816;12.828;2023-11-21T02:12:01;6.43;;;6.22;;
30080;SDS011;16902;50.816;12.828;2023-11-21T02:17:04;6.75;;;6.55;;
30080;SDS011;16902;50.816;12.828;2023-11-21T02:22:06;6.20;;;5.95;;
30080;SDS011;16902;50.816;12.828;2023-11-21T02:27:10;6.55;;;6.28;;
30080;SDS011;16902;50.816;12.828;2023-11-21T02:32:13;6.70;;;6.45;;
30080;SDS011;16902;50.816;12.828;2023-11-21T02:37:16;6.63;;;6.43;;
30080;SDS011;16902;50.816;12.828;2023-11-21T02:42:18;6.55;;;6.35;;
30080;SDS011;16902;50.816;12.828;2023-11-21T02:47:21;6.65;;;6.45;;
30080;SDS011;16902;50.816;12.828;2023-11-21T02:52:23;5.88;;;5.68;;
30080;SDS011;16902;50.816;12.828;2023-11-21T02:57:25;5.75;;;5.55;;
30080;SDS011;16902;50.816;12.828;2023-11-21T03:02:27;5.85;;;5.65;;
30080;SDS011;16902;50.816;12.828;2023-11-21T03:07:29;5.88;;;5.68;;
30080;SDS011;16902;50.816;12.828;2023-11-21T03:12:32;5.80;;;5.60;;
30080;SDS011;16902;50.816;12.828;2023-11-21T03:17:34;5.93;;;5.72;;
30080;SDS011;16902;50.816;12.828;2023-11-21T03:22:37;5.43;;;5.22;;
30080;SDS011;16902;50.816;12.828;2023-11-21T03:27:40;5.70;;;5.50;;
30080;SDS011;16902;50.816;12.828;2023-11-21T03:32:44;5.85;;;5.65;;
30080;SDS011;16902;50.816;12.828;2023-11-21T03:37:46;5.80;;;5.60;;
30080;SDS011;16902;50.816;12.828;2023-11-21T03:42:48;5.80;;;5.60;;
30080;SDS011;16902;50.816;12.828;2023-11-21T03:47:53;6.05;;;5.85;;
30080;SDS011;16902;50.816;12.828;2023-11-21T03:52:55;5.90;;;5.70;;
30080;SDS011;16902;50.816;12.828;2023-11-21T03:57:58;6.00;;;5.80;;
30080;SDS011;16902;50.816;12.828;2023-11-21T04:03:00;5.97;;;5.78;;
30080;SDS011;16902;50.816;12.828;2023-11-21T04:08:02;6.10;;;5.90;;
30080;SDS011;16902;50.816;12.828;2023-11-21T04:13:07;5.85;;;5.65;;
30080;SDS011;16902;50.816;12.828;2023-11-21T04:18:09;5.55;;;5.35;;
30080;SDS011;16902;50.816;12.828;2023-11-21T04:23:11;5.68;;;5.47;;
30080;SDS011;16902;50.816;12.828;2023-11-21T04:28:15;5.03;;;4.82;;
30080;SDS011;16902;50.816;12.828;2023-11-21T04:33:17;5.97;;;5.78;;
30080;SDS011;16902;50.816;12.828;2023-11-21T04:38:19;5.68;;;5.38;;
30080;SDS011;16902;50.816;12.828;2023-11-21T04:43:20;5.32;;;5.13;;
30080;SDS011;16902;50.816;12.828;2023-11-21T04:48:22;5.65;;;5.45;;
30080;SDS011;16902;50.816;12.828;2023-11-21T04:53:24;6.03;;;5.72;;
30080;SDS011;16902;50.816;12.828;2023-11-21T04:58:26;5.35;;;5.15;;
30080;SDS011;16902;50.816;12.828;2023-11-21T05:03:28;6.30;;;6.00;;
30080;SDS011;16902;50.816;12.828;2023-11-21T05:08:31;6.05;;;5.85;;
30080;SDS011;16902;50.816;12.828;2023-11-21T05:13:34;6.47;;;6.18;;
30080;SDS011;16902;50.816;12.828;2023-11-21T05:18:36;6.32;;;6.03;;
30080;SDS011;16902;50.816;12.828;2023-11-21T05:23:38;6.15;;;5.75;;
30080;SDS011;16902;50.816;12.828;2023-11-21T05:28:40;5.53;;;5.32;;
30080;SDS011;16902;50.816;12.828;2023-11-21T05:33:42;6.90;;;6.50;;
30080;SDS011;16902;50.816;12.828;2023-11-21T05:38:44;5.97;;;5.78;;
30080;SDS011;16902;50.816;12.828;2023-11-21T05:43:46;6.07;;;5.88;;
30080;SDS011;16902;50.816;12.828;2023-11-21T05:48:48;6.60;;;6.32;;
30080;SDS011;16902;50.816;12.828;2023-11-21T05:53:49;6.20;;;6.00;;
30080;SDS011;16902;50.816;12.828;2023-11-21T05:58:51;6.72;;;6.38;;
30080;SDS011;16902;50.816;12.828;2023-11-21T06:03:54;6.90;;;6.60;;
30080;SDS011;16902;50.816;12.828;2023-11-21T06:08:59;7.38;;;7.07;;
30080;SDS011;16902;50.816;12.828;2023-11-21T06:14:01;6.80;;;6.60;;
30080;SDS011;16902;50.816;12.828;2023-11-21T06:19:04;7.32;;;6.72;;
30080;SDS011;16902;50.816;12.828;2023-11-21T06:24:06;7.05;;;6.45;;
30080;SDS011;16902;50.816;12.828;2023-11-21T06:29:08;6.63;;;6.43;;
30080;SDS011;16902;50.816;12.828;2023-11-21T06:34:10;7.10;;;6.90;;
30080;SDS011;16902;50.816;12.828;2023-11-21T06:39:12;7.28;;;6.88;;
30080;SDS011;16902;50.816;12.828;2023-11-21T06:44:16;7.18;;;6.88;;
30080;SDS011;16902;50.816;12.828;2023-11-21T06:49:18;7.57;;;7.28;;
30080;SDS011;16902;50.816;12.828;2023-11-21T06:54:20;6.90;;;6.70;;
30080;SDS011;16902;50.816;12.828;2023-11-21T06:59:23;7.45;;;7.15;;
30080;SDS011;16902;50.816;12.828;2023-11-21T07:04:25;7.35;;;7.00;;
30080;SDS011;16902;50.816;12.828;2023-11-21T07:09:27;7.15;;;6.85;;
30080;SDS011;16902;50.816;12.828;2023-11-21T07:14:29;7.90;;;7.40;;
30080;SDS011;16902;50.816;12.828;2023-11-21T07:19:31;8.48;;;7.80;;
30080;SDS011;16902;50.816;12.828;2023-11-21T07:24:33;7.22;;;6.75;;
30080;SDS011;16902;50.816;12.828;2023-11-21T07:29:35;7.30;;;6.78;;
30080;SDS011;16902;50.816;12.828;2023-11-21T07:34:37;7.30;;;7.00;;
30080;SDS011;16902;50.816;12.828;2023-11-21T07:39:39;7.32;;;7.03;;
30080;SDS011;16902;50.816;12.828;2023-11-21T07:44:43;7.28;;;7.00;;
30080;SDS011;16902;50.816;12.828;2023-11-21T07:49:48;7.28;;;6.97;;
30080;SDS011;16902;50.816;12.828;2023-11-21T07:54:49;7.28;;;6.97;;
30080;SDS011;16902;50.816;12.828;2023-11-21T07:59:52;7.97;;;7.57;;
30080;SDS011;16902;50.816;12.828;2023-11-21T08:04:55;7.65;;;7.25;;
30080;SDS011;16902;50.816;12.828;2023-11-21T08:09:58;7.03;;;6.72;;
30080;SDS011;16902;50.816;12.828;2023-11-21T08:15:00;7.85;;;7.45;;
30080;SDS011;16902;50.816;12.828;2023-11-21T08:20:04;7.10;;;6.70;;
30080;SDS011;16902;50.816;12.828;2023-11-21T08:25:08;7.47;;;7.10;;
30080;SDS011;16902;50.816;12.828;2023-11-21T08:30:11;8.23;;;7.82;;
30080;SDS011;16902;50.816;12.828;2023-11-21T08:35:15;7.10;;;6.80;;
30080;SDS011;16902;50.816;12.828;2023-11-21T08:40:18;8.63;;;8.10;;
30080;SDS011;16902;50.816;12.828;2023-11-21T08:45:22;7.50;;;7.00;;
30080;SDS011;16902;50.816;12.828;2023-11-21T08:50:24;7.38;;;6.97;;
30080;SDS011;16902;50.816;12.828;2023-11-21T08:55:26;8.45;;;8.02;;
30080;SDS011;16902;50.816;12.828;2023-11-21T09:00:29;8.20;;;7.75;;
30080;SDS011;16902;50.816;12.828;2023-11-21T09:05:31;8.82;;;8.10;;
30080;SDS011;16902;50.816;12.828;2023-11-21T09:10:33;8.02;;;7.63;;
30080;SDS011;16902;50.816;12.828;2023-11-21T09:15:38;7.28;;;6.88;;
30080;SDS011;16902;50.816;12.828;2023-11-21T09:20:42;8.00;;;7.50;;
30080;SDS011;16902;50.816;12.828;2023-11-21T09:25:47;7.32;;;6.97;;
30080;SDS011;16902;50.816;12.828;2023-11-21T09:30:51;7.20;;;6.80;;
30080;SDS011;16902;50.816;12.828;2023-11-21T09:35:53;6.80;;;6.43;;
30080;SDS011;16902;50.816;12.828;2023-11-21T09:40:55;6.43;;;6.22;;
30080;SDS011;16902;50.816;12.828;2023-11-21T09:46:01;7.03;;;6.72;;
30080;SDS011;16902;50.816;12.828;2023-11-21T09:51:03;6.03;;;5.82;;
30080;SDS011;16902;50.816;12.828;2023-11-21T09:56:06;6.18;;;5.97;;
30080;SDS011;16902;50.816;12.828;2023-11-21T10:01:10;7.53;;;6.93;;
30080;SDS011;16902;50.816;12.828;2023-11-21T10:06:14;6.28;;;6.07;;
30080;SDS011;16902;50.816;12.828;2023-11-21T10:11:19;7.00;;;6.70;;
30080;SDS011;16902;50.816;12.828;2023-11-21T10:16:23;6.88;;;6.57;;
30080;SDS011;16902;50.816;12.828;2023-11-21T10:21:27;8.20;;;7.60;;
30080;SDS011;16902;50.816;12.828;2023-11-21T10:26:29;6.82;;;6.53;;
30080;SDS011;16902;50.816;12.828;2023-11-21T10:31:50;7.78;;;7.47;;
30080;SDS011;16902;50.816;12.828;2023-11-21T10:36:53;7.97;;;7.57;;
30080;SDS011;16902;50.816;12.828;2023-11-21T10:41:55;7.72;;;7.28;;
30080;SDS011;16902;50.816;12.828;2023-11-21T10:46:57;7.90;;;7.40;;
30080;SDS011;16902;50.816;12.828;2023-11-21T10:52:02;6.80;;;6.47;;
30080;SDS011;16902;50.816;12.828;2023-11-21T10:57:05;7.03;;;6.63;;
30080;SDS011;16902;50.816;12.828;2023-11-21T11:02:27;6.20;;;5.90;;
30080;SDS011;16902;50.816;12.828;2023-11-21T11:07:30;6.68;;;6.38;;
30080;SDS011;16902;50.816;12.828;2023-11-21T11:12:35;6.38;;;6.07;;
30080;SDS011;16902;50.816;12.828;2023-11-21T11:17:38;7.78;;;7.25;;
30080;SDS011;16902;50.816;12.828;2023-11-21T11:22:45;7.03;;;6.72;;
30080;SDS011;16902;50.816;12.828;2023-11-21T11:28:14;6.72;;;6.43;;
30080;SDS011;16902;50.816;12.828;2023-11-21T11:38:32;6.05;;;5.85;;
30080;SDS011;16902;50.816;12.828;2023-11-21T11:43:35;7.00;;;6.70;;
30080;SDS011;16902;50.816;12.828;2023-11-21T11:48:46;7.60;;;7.07;;
30080;SDS011;16902;50.816;12.828;2023-11-21T11:53:48;6.63;;;6.38;;
30080;SDS011;16902;50.816;12.828;2023-11-21T11:58:50;8.63;;;8.13;;
30080;SDS011;16902;50.816;12.828;2023-11-21T12:09:20;7.53;;;7.22;;
30080;SDS011;16902;50.816;12.828;2023-11-21T12:14:23;7.70;;;7.30;;
30080;SDS011;16902;50.816;12.828;2023-11-21T12:19:26;7.15;;;6.75;;
30080;SDS011;16902;50.816;12.828;2023-11-21T12:24:28;7.57;;;7.28;;
30080;SDS011;16902;50.816;12.828;2023-11-21T12:29:30;7.65;;;7.35;;
30080;SDS011;16902;50.816;12.828;2023-11-21T12:34:34;7.88;;;7.40;;
30080;SDS011;16902;50.816;12.828;2023-11-21T12:39:36;7.57;;;7.18;;
30080;SDS011;16902;50.816;12.828;2023-11-21T12:44:38;7.30;;;6.93;;
30080;SDS011;16902;50.816;12.828;2023-11-21T12:49:42;7.25;;;6.85;;
30080;SDS011;16902;50.816;12.828;2023-11-21T12:54:45;7.75;;;7.25;;
30080;SDS011;16902;50.816;12.828;2023-11-21T12:59:50;6.45;;;6.15;;
30080;SDS011;16902;50.816;12.828;2023-11-21T13:04:54;6.68;;;6.38;;
30080;SDS011;16902;50.816;12.828;2023-11-21T13:09:59;7.28;;;6.82;;
30080;SDS011;16902;50.816;12.828;2023-11-21T13:15:09;6.55;;;6.25;;
30080;SDS011;16902;50.816;12.828;2023-11-21T13:20:12;7.63;;;7.07;;
30080;SDS011;16902;50.816;12.828;2023-11-21T13:25:17;7.13;;;6.82;;
30080;SDS011;16902;50.816;12.828;2023-11-21T13:30:19;6.28;;;5.97;;
30080;SDS011;16902;50.816;12.828;2023-11-21T13:35:28;6.30;;;6.00;;
30080;SDS011;16902;50.816;12.828;2023-11-21T13:40:34;6.13;;;5.85;;
30080;SDS011;16902;50.816;12.828;2023-11-21T13:45:52;7.38;;;6.97;;
30080;SDS011;16902;50.816;12.828;2023-11-21T13:51:17;7.32;;;6.85;;
30080;SDS011;16902;50.816;12.828;2023-11-21T13:56:20;6.75;;;6.45;;
30080;SDS011;16902;50.816;12.828;2023-11-21T14:01:26;7.03;;;6.72;;
30080;SDS011;16902;50.816;12.828;2023-11-21T14:06:31;6.43;;;5.95;;
30080;SDS011;16902;50.816;12.828;2023-11-21T14:11:41;6.85;;;6.45;;
30080;SDS011;16902;50.816;12.828;2023-11-21T14:16:49;6.90;;;6.50;;
30080;SDS011;16902;50.816;12.828;2023-11-21T14:21:52;7.10;;;6.65;;
30080;SDS011;16902;50.816;12.828;2023-11-21T14:26:54;7.43;;;6.95;;
30080;SDS011;16902;50.816;12.828;2023-11-21T14:31:56;8.00;;;7.47;;
30080;SDS011;16902;50.816;12.828;2023-11-21T14:36:59;7.18;;;6.88;;
30080;SDS011;16902;50.816;12.828;2023-11-21T14:42:04;7.43;;;7.13;;
30080;SDS011;16902;50.816;12.828;2023-11-21T14:47:08;6.60;;;6.32;;
30080;SDS011;16902;50.816;12.828;2023-11-21T14:52:17;5.95;;;5.75;;
30080;SDS011;16902;50.816;12.828;2023-11-21T14:57:28;6.78;;;6.38;;
30080;SDS011;16902;50.816;12.828;2023-11-21T15:02:30;7.25;;;6.85;;
30080;SDS011;16902;50.816;12.828;2023-11-21T15:07:50;6.22;;;5.93;;
30080;SDS011;16902;50.816;12.828;2023-11-21T15:12:57;7.22;;;6.82;;
30080;SDS011;16902;50.816;12.828;2023-11-21T15:17:59;6.43;;;6.13;;
30080;SDS011;16902;50.816;12.828;2023-11-21T15:23:01;6.75;;;6.45;;
30080;SDS011;16902;50.816;12.828;2023-11-21T15:28:05;6.47;;;6.07;;
30080;SDS011;16902;50.816;12.828;2023-11-21T15:33:07;6.22;;;5.95;;
30080;SDS011;16902;50.816;12.828;2023-11-21T15:38:10;6.50;;;6.18;;
30080;SDS011;16902;50.816;12.828;2023-11-21T15:43:13;6.50;;;6.10;;
30080;SDS011;16902;50.816;12.828;2023-11-21T15:48:15;6.63;;;6.32;;
30080;SDS011;16902;50.816;12.828;2023-11-21T15:53:18;6.30;;;6.00;;
30080;SDS011;16902;50.816;12.828;2023-11-21T15:58:20;7.55;;;7.10;;
30080;SDS011;16902;50.816;12.828;2023-11-21T16:03:22;8.65;;;7.95;;
30080;SDS011;16902;50.816;12.828;2023-11-21T16:08:24;8.00;;;7.45;;
30080;SDS011;16902;50.816;12.828;2023-11-21T16:13:26;7.13;;;6.70;;
30080;SDS011;16902;50.816;12.828;2023-11-21T16:18:29;7.18;;;6.72;;
30080;SDS011;16902;50.816;12.828;2023-11-21T16:23:31;7.75;;;7.35;;
30080;SDS011;16902;50.816;12.828;2023-11-21T16:28:33;6.50;;;6.25;;
30080;SDS011;16902;50.816;12.828;2023-11-21T16:33:34;8.45;;;7.85;;
30080;SDS011;16902;50.816;12.828;2023-11-21T16:38:37;7.00;;;6.60;;
30080;SDS011;16902;50.816;12.828;2023-11-21T16:43:39;8.15;;;7.45;;
30080;SDS011;16902;50.816;12.828;2023-11-21T16:48:41;6.47;;;6.18;;
30080;SDS011;16902;50.816;12.828;2023-11-21T16:53:43;6.65;;;6.25;;
30080;SDS011;16902;50.816;12.828;2023-11-21T16:58:45;7.13;;;6.75;;
30080;SDS011;16902;50.816;12.828;2023-11-21T17:03:47;7.15;;;6.65;;
30080;SDS011;16902;50.816;12.828;2023-11-21T17:08:51;6.40;;;5.95;;
30080;SDS011;16902;50.816;12.828;2023-11-21T17:13:56;6.68;;;6.32;;
30080;SDS011;16902;50.816;12.828;2023-11-21T17:19:00;6.88;;;6.47;;
30080;SDS011;16902;50.816;12.828;2023-11-21T17:24:05;6.35;;;6.05;;
30080;SDS011;16902;50.816;12.828;2023-11-21T17:29:08;5.93;;;5.72;;
30080;SDS011;16902;50.816;12.828;2023-11-21T17:34:12;7.00;;;6.60;;
30080;SDS011;16902;50.816;12.828;2023-11-21T17:39:14;6.45;;;6.15;;
30080;SDS011;16902;50.816;12.828;2023-11-21T17:44:16;6.65;;;6.35;;
30080;SDS011;16902;50.816;12.828;2023-11-21T17:49:18;7.18;;;6.78;;
30080;SDS011;16902;50.816;12.828;2023-11-21T17:54:20;6.45;;;6.15;;
30080;SDS011;16902;50.816;12.828;2023-11-21T17:59:22;7.70;;;7.28;;
30080;SDS011;16902;50.816;12.828;2023-11-21T18:04:24;6.95;;;6.65;;
30080;SDS011;16902;50.816;12.828;2023-11-21T18:09:27;7.43;;;6.93;;
30080;SDS011;16902;50.816;12.828;2023-11-21T18:14:29;8.75;;;8.18;;
30080;SDS011;16902;50.816;12.828;2023-11-21T18:19:31;7.15;;;6.85;;
30080;SDS011;16902;50.816;12.828;2023-11-21T18:24:34;8.07;;;7.47;;
30080;SDS011;16902;50.816;12.828;2023-11-21T18:29:36;9.00;;;8.48;;
30080;SDS011;16902;50.816;12.828;2023-11-21T18:34:41;8.25;;;7.75;;
30080;SDS011;16902;50.816;12.828;2023-11-21T18:39:45;7.55;;;7.13;;
30080;SDS011;16902;50.816;12.828;2023-11-21T18:44:47;7.00;;;6.70;;
30080;SDS011;16902;50.816;12.828;2023-11-21T18:49:59;7.65;;;6.78;;
30080;SDS011;16902;50.816;12.828;2023-11-21T18:55:01;6.90;;;6.50;;
30080;SDS011;16902;50.816;12.828;2023-11-21T19:00:05;5.93;;;5.72;;
30080;SDS011;16902;50.816;12.828;2023-11-21T19:05:10;6.70;;;6.50;;
30080;SDS011;16902;50.816;12.828;2023-11-21T19:10:13;5.80;;;5.60;;
30080;SDS011;16902;50.816;12.828;2023-11-21T19:15:15;6.93;;;6.53;;
30080;SDS011;16902;50.816;12.828;2023-11-21T19:20:18;6.18;;;5.93;;
30080;SDS011;16902;50.816;12.828;2023-11-21T19:25:20;7.13;;;6.72;;
30080;SDS011;16902;50.816;12.828;2023-11-21T19:30:22;6.18;;;5.97;;
30080;SDS011;16902;50.816;12.828;2023-11-21T19:35:25;6.55;;;6.18;;
30080;SDS011;16902;50.816;12.828;2023-11-21T19:40:29;6.80;;;6.47;;
30080;SDS011;16902;50.816;12.828;2023-11-21T19:45:32;6.72;;;6.30;;
30080;SDS011;16902;50.816;12.828;2023-11-21T19:50:35;7.15;;;6.85;;
30080;SDS011;16902;50.816;12.828;2023-11-21T19:55:37;6.18;;;5.80;;
30080;SDS011;16902;50.816;12.828;2023-11-21T20:00:39;6.95;;;6.65;;
30080;SDS011;16902;50.816;12.828;2023-11-21T20:05:41;6.90;;;6.55;;
30080;SDS011;16902;50.816;12.828;2023-11-21T20:10:43;7.13;;;6.78;;
30080;SDS011;16902;50.816;12.828;2023-11-21T20:15:49;7.43;;;6.93;;
30080;SDS011;16902;50.816;12.828;2023-11-21T20:20:50;5.85;;;5.65;;
30080;SDS011;16902;50.816;12.828;2023-11-21T20:25:52;7.47;;;7.07;;
30080;SDS011;16902;50.816;12.828;2023-11-21T20:31:00;7.18;;;6.63;;
30080;SDS011;16902;50.816;12.828;2023-11-21T20:36:03;7.15;;;6.65;;
30080;SDS011;16902;50.816;12.828;2023-11-21T20:41:06;7.47;;;7.13;;
30080;SDS011;16902;50.816;12.828;2023-11-21T20:46:13;8.43;;;7.75;;
30080;SDS011;16902;50.816;12.828;2023-11-21T20:51:14;6.50;;;6.25;;
30080;SDS011;16902;50.816;12.828;2023-11-21T20:56:16;7.90;;;7.15;;
30080;SDS011;16902;50.816;12.828;2023-11-21T21:01:20;7.53;;;7.13;;
30080;SDS011;16902;50.816;12.828;2023-11-21T21:06:22;7.57;;;7.18;;
30080;SDS011;16902;50.816;12.828;2023-11-21T21:11:24;6.90;;;6.60;;
30080;SDS011;16902;50.816;12.828;2023-11-21T21:16:27;7.25;;;6.95;;
30080;SDS011;16902;50.816;12.828;2023-11-21T21:21:31;6.05;;;5.75;;
30080;SDS011;16902;50.816;12.828;2023-11-21T21:26:33;6.68;;;6.43;;
30080;SDS011;16902;50.816;12.828;2023-11-21T21:31:36;6.65;;;6.35;;
30080;SDS011;16902;50.816;12.828;2023-11-21T21:36:40;6.90;;;6.60;;
30080;SDS011;16902;50.816;12.828;2023-11-21T21:41:44;5.45;;;5.25;;
30080;SDS011;16902;50.816;12.828;2023-11-21T21:46:46;6.82;;;6.60;;
30080;SDS011;16902;50.816;12.828;2023-11-21T21:51:48;6.00;;;5.80;;
30080;SDS011;16902;50.816;12.828;2023-11-21T21:56:50;6.75;;;6.45;;
30080;SDS011;16902;50.816;12.828;2023-11-21T22:01:51;7.20;;;6.90;;
30080;SDS011;16902;50.816;12.828;2023-11-21T22:06:54;6.63;;;6.22;;
30080;SDS011;16902;50.816;12.828;2023-11-21T22:11:56;6.38;;;6.18;;
30080;SDS011;16902;50.816;12.828;2023-11-21T22:17:00;6.40;;;6.10;;
30080;SDS011;16902;50.816;12.828;2023-11-21T22:22:05;6.30;;;6.00;;
30080;SDS011;16902;50.816;12.828;2023-11-21T22:27:07;8.20;;;7.60;;
30080;SDS011;16902;50.816;12.828;2023-11-21T22:32:09;7.05;;;6.65;;
30080;SDS011;16902;50.816;12.828;2023-11-21T22:37:11;6.18;;;5.90;;
30080;SDS011;16902;50.816;12.828;2023-11-21T22:42:14;8.38;;;7.68;;
30080;SDS011;16902;50.816;12.828;2023-11-21T22:47:16;7.45;;;7.15;;
30080;SDS011;16902;50.816;12.828;2023-11-21T22:52:18;7.20;;;6.88;;
30080;SDS011;16902;50.816;12.828;2023-11-21T22:57:19;7.73;;;7.33;;
30080;SDS011;16902;50.816;12.828;2023-11-21T23:02:21;7.25;;;6.93;;
30080;SDS011;16902;50.816;12.828;2023-11-21T23:07:23;8.50;;;8.00;;
30080;SDS011;16902;50.816;12.828;2023-11-21T23:12:25;8.13;;;7.72;;
30080;SDS011;16902;50.816;12.828;2023-11-21T23:17:28;9.10;;;8.43;;
30080;SDS011;16902;50.816;12.828;2023-11-21T23:22:31;9.10;;;8.33;;
30080;SDS011;16902;50.816;12.828;2023-11-21T23:27:34;7.43;;;7.00;;
30080;SDS011;16902;50.816;12.828;2023-11-21T23:32:36;8.45;;;7.95;;
30080;SDS011;16902;50.816;12.828;2023-11-21T23:37:40;8.50;;;7.88;;
30080;SDS011;16902;50.816;12.828;2023-11-21T23:42:42;8.27;;;7.80;;
30080;SDS011;16902;50.816;12.828;2023-11-21T23:47:45;7.22;;;6.93;;
30080;SDS011;16902;50.816;12.828;2023-11-21T23:52:47;8.95;;;8.50;;
30080;SDS011;16902;50.816;12.828;2023-11-21T23:57:49;8.47;;;7.97;;
